createdAt,value
2023-05-13T00:02:01.179Z,84.70
2023-05-13T00:04:28.314Z,84.40
2023-05-13T00:06:55.636Z,84.10
2023-05-13T00:09:28.207Z,84.20
2023-05-13T00:11:57.728Z,84.40
2023-05-13T00:14:24.976Z,84.30
2023-05-13T00:16:52.195Z,84.60
2023-05-13T00:19:19.323Z,84.70
2023-05-13T00:21:46.336Z,84.40
2023-05-13T00:24:13.580Z,84.30
2023-05-13T00:26:40.679Z,84.40
2023-05-13T00:29:07.739Z,84.00
2023-05-13T00:31:35.056Z,83.90
2023-05-13T00:34:02.154Z,84.50
2023-05-13T00:36:29.340Z,85.10
2023-05-13T00:38:56.411Z,85.70
2023-05-13T00:41:23.474Z,85.50
2023-05-13T00:43:52.290Z,85.30
2023-05-13T00:46:19.348Z,85.60
2023-05-13T00:48:46.416Z,86.00
2023-05-13T00:51:13.525Z,86.70
2023-05-13T00:53:40.530Z,87.10
2023-05-13T00:56:07.601Z,87.50
2023-05-13T00:58:34.922Z,87.70
2023-05-13T01:01:05.031Z,87.60
2023-05-13T01:04:02.903Z,87.40
2023-05-13T01:06:51.699Z,86.70
2023-05-13T01:09:23.930Z,86.40
2023-05-13T01:11:50.949Z,86.30
2023-05-13T01:14:25.537Z,86.20
2023-05-13T01:16:53.950Z,85.80
2023-05-13T01:19:26.807Z,85.70
2023-05-13T01:21:54.696Z,85.80
2023-05-13T01:24:21.807Z,85.20
2023-05-13T01:26:49.561Z,85.00
2023-05-13T01:29:16.688Z,84.80
2023-05-13T01:31:43.744Z,85.10
2023-05-13T01:34:11.550Z,84.90
2023-05-13T01:36:39.495Z,84.40
2023-05-13T01:39:06.520Z,84.10
2023-05-13T01:41:33.563Z,84.20
2023-05-13T01:44:00.809Z,84.00
2023-05-13T01:46:27.850Z,83.70
2023-05-13T01:48:54.980Z,83.40
2023-05-13T01:51:21.961Z,83.10
2023-05-13T01:53:48.953Z,82.80
2023-05-13T01:56:16.009Z,82.60
2023-05-13T01:58:43.007Z,82.50
2023-05-13T02:01:10.158Z,82.60
2023-05-13T02:03:37.843Z,82.40
2023-05-13T02:06:05.196Z,81.70
2023-05-13T02:08:32.520Z,81.90
2023-05-13T02:10:59.730Z,82.40
2023-05-13T02:13:26.880Z,82.60
2023-05-13T02:15:54.616Z,82.40
2023-05-13T02:18:22.443Z,82.50
2023-05-13T02:20:49.593Z,82.40
2023-05-13T02:23:17.774Z,82.40
2023-05-13T02:25:45.005Z,82.60
2023-05-13T02:28:12.284Z,82.60
2023-05-13T02:30:39.215Z,82.30
2023-05-13T02:33:07.114Z,82.30
2023-05-13T02:35:34.310Z,82.10
2023-05-13T02:38:04.084Z,81.90
2023-05-13T02:40:31.095Z,81.60
2023-05-13T02:42:58.077Z,82.00
2023-05-13T02:45:27.470Z,82.30
2023-05-13T02:47:57.732Z,82.40
2023-05-13T02:50:27.177Z,82.00
2023-05-13T02:52:54.225Z,82.40
2023-05-13T02:55:21.466Z,82.50
2023-05-13T02:57:48.525Z,82.60
2023-05-13T03:00:16.210Z,82.40
2023-05-13T03:02:43.386Z,82.20
2023-05-13T03:05:10.568Z,82.20
2023-05-13T03:07:37.627Z,82.40
2023-05-13T03:10:05.206Z,82.60
2023-05-13T03:12:32.282Z,82.10
2023-05-13T03:15:02.574Z,81.60
2023-05-13T03:17:32.080Z,81.70
2023-05-13T03:19:59.116Z,81.50
2023-05-13T03:22:26.284Z,81.40
2023-05-13T03:24:53.383Z,81.70
2023-05-13T03:27:20.559Z,81.60
2023-05-13T03:29:47.596Z,81.00
2023-05-13T03:32:14.646Z,81.00
2023-05-13T03:34:41.625Z,80.90
2023-05-13T03:37:10.006Z,80.70
2023-05-13T03:39:37.245Z,81.10
2023-05-13T03:42:04.488Z,81.50
2023-05-13T03:44:31.530Z,81.30
2023-05-13T03:46:58.776Z,80.90
2023-05-13T03:49:26.015Z,80.40
2023-05-13T03:51:53.092Z,80.20
2023-05-13T03:54:20.111Z,80.10
2023-05-13T03:56:47.201Z,80.00
2023-05-13T03:59:14.289Z,79.70
2023-05-13T04:01:41.514Z,79.90
2023-05-13T04:04:08.572Z,80.20
2023-05-13T04:06:35.869Z,80.10
2023-05-13T04:09:04.747Z,80.40
2023-05-13T04:11:32.403Z,81.30
2023-05-13T04:13:59.513Z,82.30
2023-05-13T04:16:26.527Z,83.00
2023-05-13T04:18:53.546Z,83.00
2023-05-13T04:21:20.786Z,83.00
2023-05-13T04:23:48.109Z,82.20
2023-05-13T04:26:15.109Z,81.60
2023-05-13T04:28:42.100Z,80.70
2023-05-13T04:31:09.104Z,80.40
2023-05-13T04:33:36.070Z,79.60
2023-05-13T04:36:03.630Z,79.70
2023-05-13T04:38:31.672Z,79.60
2023-05-13T04:40:58.750Z,79.00
2023-05-13T04:43:25.904Z,78.30
2023-05-13T04:45:52.950Z,77.10
2023-05-13T04:48:20.066Z,76.40
2023-05-13T04:50:47.388Z,76.30
2023-05-13T04:53:15.041Z,76.00
2023-05-13T04:55:42.283Z,75.90
2023-05-13T04:58:09.360Z,76.00
2023-05-13T05:00:36.368Z,75.90
2023-05-13T05:03:03.537Z,75.80
2023-05-13T05:05:30.689Z,75.80
2023-05-13T05:07:57.732Z,75.90
2023-05-13T05:10:24.741Z,75.80
2023-05-13T05:12:52.018Z,75.90
2023-05-13T05:15:19.122Z,75.80
2023-05-13T05:17:46.244Z,75.80
2023-05-13T05:20:13.839Z,76.20
2023-05-13T05:22:42.270Z,76.40
2023-05-13T05:25:10.234Z,76.70
2023-05-13T05:27:37.232Z,77.90
2023-05-13T05:30:04.864Z,79.00
2023-05-13T05:32:32.058Z,79.70
2023-05-13T05:35:02.237Z,79.60
2023-05-13T05:37:30.456Z,79.00
2023-05-13T05:39:57.733Z,79.20
2023-05-13T05:42:24.990Z,79.90
2023-05-13T05:44:52.015Z,79.90
2023-05-13T05:47:19.610Z,80.00
2023-05-13T05:49:48.619Z,80.00
2023-05-13T05:52:15.791Z,79.40
2023-05-13T05:54:43.099Z,78.90
2023-05-13T05:57:10.240Z,78.90
2023-05-13T05:59:37.285Z,78.90
2023-05-13T06:02:04.700Z,78.80
2023-05-13T06:04:31.784Z,78.30
2023-05-13T06:06:59.073Z,77.70
2023-05-13T06:09:26.089Z,77.20
2023-05-13T06:11:53.285Z,76.80
2023-05-13T06:14:20.301Z,76.40
2023-05-13T06:16:47.307Z,75.70
2023-05-13T06:19:14.349Z,75.70
2023-05-13T06:21:43.344Z,75.50
2023-05-13T06:24:13.039Z,75.40
2023-05-13T06:26:40.128Z,75.50
2023-05-13T06:29:07.212Z,75.50
2023-05-13T06:31:34.494Z,75.60
2023-05-13T06:34:01.777Z,75.00
2023-05-13T06:36:29.282Z,74.30
2023-05-13T06:38:56.385Z,73.80
2023-05-13T06:41:23.518Z,74.10
2023-05-13T06:43:50.718Z,73.20
2023-05-13T06:46:17.825Z,72.60
2023-05-13T06:48:44.922Z,71.60
2023-05-13T06:51:12.201Z,70.80
2023-05-13T06:53:39.352Z,69.60
2023-05-13T06:56:08.319Z,69.70
2023-05-13T06:58:35.541Z,67.10
2023-05-13T07:01:05.799Z,67.10
2023-05-13T07:03:33.018Z,66.20
2023-05-13T07:06:00.121Z,65.50
2023-05-13T07:08:27.208Z,63.90
2023-05-13T07:10:54.282Z,62.90
2023-05-13T07:13:21.492Z,62.70
2023-05-13T07:15:49.250Z,62.20
2023-05-13T07:18:16.383Z,61.60
2023-05-13T07:20:46.850Z,61.40
2023-05-13T07:23:14.043Z,60.90
2023-05-13T07:25:41.120Z,60.50
2023-05-13T07:28:10.259Z,59.70
2023-05-13T07:30:39.591Z,59.30
2023-05-13T07:33:06.627Z,58.90
2023-05-13T07:35:33.689Z,58.50
2023-05-13T07:38:00.766Z,57.70
2023-05-13T07:40:27.900Z,56.20
2023-05-13T07:42:54.980Z,54.20
2023-05-13T07:45:22.474Z,54.70
2023-05-13T07:47:52.714Z,54.10
2023-05-13T07:50:19.935Z,53.80
2023-05-13T07:53:21.577Z,53.80
2023-05-13T07:55:48.672Z,54.10
2023-05-13T07:58:15.845Z,54.20
2023-05-13T08:00:43.096Z,55.10
2023-05-13T08:03:10.313Z,55.50
2023-05-13T08:05:37.448Z,55.90
2023-05-13T08:08:07.386Z,55.40
2023-05-13T08:10:34.476Z,55.80
2023-05-13T08:13:02.399Z,55.30
2023-05-13T08:15:29.522Z,54.60
2023-05-13T08:17:56.689Z,54.30
2023-05-13T08:20:29.995Z,52.50
2023-05-13T08:22:58.688Z,51.80
2023-05-13T08:25:25.871Z,52.50
2023-05-13T08:27:52.998Z,52.70
2023-05-13T08:30:20.142Z,52.10
2023-05-13T08:32:47.424Z,50.80
2023-05-13T08:35:14.675Z,51.10
2023-05-13T08:37:41.753Z,51.50
2023-05-13T08:40:10.361Z,52.80
2023-05-13T08:42:40.176Z,54.10
2023-05-13T08:45:08.775Z,55.40
2023-05-13T08:47:57.218Z,55.90
2023-05-13T08:50:24.479Z,56.90
2023-05-13T08:52:53.030Z,56.80
2023-05-13T08:55:20.444Z,56.20
2023-05-13T08:57:47.680Z,56.30
2023-05-13T09:00:15.245Z,56.30
2023-05-13T09:02:42.710Z,55.80
2023-05-13T09:05:11.505Z,55.80
2023-05-13T09:07:39.164Z,56.80
2023-05-13T09:10:07.265Z,56.80
2023-05-13T09:12:50.210Z,55.20
2023-05-13T09:15:19.307Z,54.20
2023-05-13T09:17:50.356Z,54.00
2023-05-13T09:20:37.972Z,52.90
2023-05-13T09:23:07.324Z,52.80
2023-05-13T09:25:34.862Z,52.40
2023-05-13T09:28:03.680Z,51.30
2023-05-13T09:30:36.807Z,50.30
2023-05-13T09:33:14.531Z,48.10
2023-05-13T09:35:43.658Z,46.90
2023-05-13T09:38:21.059Z,48.00
2023-05-13T09:40:59.201Z,47.80
2023-05-13T09:43:27.530Z,47.80
2023-05-13T09:45:55.395Z,47.10
2023-05-13T09:48:26.362Z,45.10
2023-05-13T09:50:53.839Z,43.80
2023-05-13T09:53:21.436Z,44.30
2023-05-13T09:55:52.868Z,44.50
2023-05-13T09:58:22.982Z,44.80
2023-05-13T10:00:51.298Z,45.80
2023-05-13T10:03:18.492Z,41.90
2023-05-13T10:05:46.009Z,42.20
2023-05-13T10:08:14.065Z,43.50
2023-05-13T10:10:42.013Z,43.40
2023-05-13T10:13:11.104Z,43.40
2023-05-13T10:15:50.804Z,42.90
2023-05-13T10:18:18.206Z,43.60
2023-05-13T10:20:45.793Z,40.20
2023-05-13T10:23:15.661Z,41.20
2023-05-13T10:25:43.175Z,41.20
2023-05-13T10:28:10.815Z,41.40
2023-05-13T10:30:40.761Z,41.80
2023-05-13T10:33:07.783Z,41.40
2023-05-13T10:35:42.668Z,41.40
2023-05-13T10:38:56.164Z,40.90
2023-05-13T10:41:23.441Z,41.30
2023-05-13T10:43:59.148Z,41.90
2023-05-13T10:46:26.318Z,41.40
2023-05-13T10:49:00.055Z,39.80
2023-05-13T10:51:27.393Z,39.80
2023-05-13T10:53:55.966Z,39.20
2023-05-13T10:56:27.076Z,38.10
2023-05-13T10:59:06.642Z,38.70
2023-05-13T11:01:47.407Z,38.50
2023-05-13T11:04:18.625Z,38.50
2023-05-13T11:06:47.162Z,37.20
2023-05-13T11:09:21.080Z,37.30
2023-05-13T11:11:49.245Z,35.80
2023-05-13T11:14:17.358Z,35.90
2023-05-13T11:17:04.495Z,35.20
2023-05-13T11:19:32.991Z,35.10
2023-05-13T11:22:19.939Z,35.40
2023-05-13T11:25:03.084Z,36.30
2023-05-13T11:27:30.142Z,36.10
2023-05-13T11:29:57.469Z,36.30
2023-05-13T11:32:59.680Z,36.00
2023-05-13T11:35:28.758Z,35.80
2023-05-13T11:37:59.119Z,36.60
2023-05-13T11:40:38.504Z,36.90
2023-05-13T11:43:08.307Z,37.80
2023-05-13T11:45:38.523Z,37.80
2023-05-13T11:48:26.924Z,37.80
2023-05-13T11:50:54.584Z,38.90
2023-05-13T11:53:22.991Z,39.00
2023-05-13T11:55:50.315Z,38.00
2023-05-13T11:58:17.511Z,38.30
2023-05-13T12:00:46.487Z,38.90
2023-05-13T12:03:16.320Z,40.60
2023-05-13T12:05:46.815Z,44.20
2023-05-13T12:08:14.100Z,46.10
2023-05-13T12:10:44.757Z,47.90
2023-05-13T12:13:12.793Z,49.90
2023-05-13T12:15:41.079Z,49.90
2023-05-13T12:18:08.336Z,52.50
2023-05-13T12:20:35.861Z,52.10
2023-05-13T12:23:04.604Z,55.30
2023-05-13T12:25:53.994Z,55.70
2023-05-13T12:28:24.308Z,56.90
2023-05-13T12:31:01.027Z,58.20
2023-05-13T12:34:01.485Z,60.10
2023-05-13T12:36:36.652Z,60.70
2023-05-13T12:39:07.286Z,62.70
2023-05-13T12:41:42.754Z,64.20
2023-05-13T12:44:11.178Z,62.70
2023-05-13T12:46:38.730Z,62.70
2023-05-13T12:49:06.222Z,63.00
2023-05-13T12:51:34.318Z,64.20
2023-05-13T12:54:04.074Z,63.70
2023-05-13T12:56:31.813Z,64.10
2023-05-13T12:58:59.292Z,63.80
2023-05-13T13:01:26.845Z,63.10
2023-05-13T13:03:54.201Z,63.00
2023-05-13T13:06:21.429Z,63.50
2023-05-13T13:08:48.796Z,62.20
2023-05-13T13:11:18.949Z,60.30
2023-05-13T13:13:46.711Z,60.00
2023-05-13T13:16:14.370Z,57.40
2023-05-13T13:18:42.507Z,56.30
2023-05-13T13:21:10.470Z,55.70
2023-05-13T13:23:37.483Z,55.10
2023-05-13T13:26:04.672Z,54.50
2023-05-13T13:28:32.116Z,53.80
2023-05-13T13:31:00.343Z,53.20
2023-05-13T13:33:27.818Z,53.40
2023-05-13T13:35:54.923Z,53.80
2023-05-13T13:38:22.365Z,53.40
2023-05-13T13:40:49.545Z,53.60
2023-05-13T13:43:16.645Z,53.40
2023-05-13T13:45:43.895Z,53.20
2023-05-13T13:48:11.315Z,53.20
2023-05-13T13:50:38.793Z,53.60
2023-05-13T13:53:06.000Z,53.30
2023-05-13T13:55:33.162Z,53.40
2023-05-13T13:58:00.462Z,54.60
2023-05-13T14:00:27.989Z,54.90
2023-05-13T14:02:55.341Z,55.80
2023-05-13T14:05:22.616Z,54.00
2023-05-13T14:07:54.273Z,54.20
2023-05-13T14:10:22.144Z,55.30
2023-05-13T14:12:49.612Z,55.70
2023-05-13T14:15:17.046Z,56.10
2023-05-13T14:17:46.469Z,57.00
2023-05-13T14:20:13.580Z,58.10
2023-05-13T14:22:40.761Z,58.10
2023-05-13T14:25:09.405Z,57.70
2023-05-13T14:27:36.813Z,57.40
2023-05-13T14:30:05.420Z,57.60
2023-05-13T14:32:33.310Z,58.10
2023-05-13T14:35:00.572Z,58.40
2023-05-13T14:37:27.918Z,58.80
2023-05-13T14:39:55.933Z,59.10
2023-05-13T14:42:29.118Z,59.20
2023-05-13T14:44:56.304Z,59.50
2023-05-13T14:47:23.580Z,58.90
2023-05-13T14:49:50.856Z,59.10
2023-05-13T14:52:18.051Z,58.20
2023-05-13T14:54:45.069Z,57.90
2023-05-13T14:57:12.397Z,58.30
2023-05-13T14:59:39.647Z,58.60
2023-05-13T15:02:06.693Z,58.80
2023-05-13T15:04:33.887Z,58.20
2023-05-13T15:07:02.260Z,59.00
2023-05-13T15:09:29.579Z,58.30
2023-05-13T15:11:56.713Z,58.60
2023-05-13T15:14:26.023Z,59.00
2023-05-13T15:16:53.441Z,59.20
2023-05-13T15:19:20.705Z,59.50
2023-05-13T15:21:47.861Z,60.10
2023-05-13T15:24:14.890Z,60.20
2023-05-13T15:26:42.230Z,59.70
2023-05-13T15:29:09.514Z,59.70
2023-05-13T15:31:36.606Z,59.20
2023-05-13T15:34:03.683Z,58.40
2023-05-13T15:36:31.243Z,58.40
2023-05-13T15:38:58.320Z,58.80
2023-05-13T15:41:25.396Z,59.40
2023-05-13T15:43:52.478Z,60.20
2023-05-13T15:46:19.775Z,60.40
2023-05-13T15:48:47.326Z,60.40
2023-05-13T15:51:14.323Z,60.90
2023-05-13T15:53:41.389Z,62.00
2023-05-13T15:56:31.703Z,62.90
2023-05-13T15:58:58.757Z,63.20
2023-05-13T16:01:25.963Z,64.00
2023-05-13T16:03:53.262Z,64.00
2023-05-13T16:06:20.464Z,63.70
2023-05-13T16:08:49.151Z,63.70
2023-05-13T16:11:27.284Z,63.80
2023-05-13T16:13:54.360Z,64.00
2023-05-13T16:16:21.853Z,64.30
2023-05-13T16:18:49.154Z,64.30
2023-05-13T16:21:16.603Z,64.00
2023-05-13T16:23:43.696Z,63.80
2023-05-13T16:26:10.707Z,63.80
2023-05-13T16:28:38.163Z,64.20
2023-05-13T16:31:05.252Z,64.70
2023-05-13T16:33:33.399Z,65.10
2023-05-13T16:36:00.682Z,64.80
2023-05-13T16:38:27.941Z,64.70
2023-05-13T16:40:56.225Z,64.70
2023-05-13T16:43:23.373Z,64.30
2023-05-13T16:45:50.424Z,64.50
2023-05-13T16:48:17.610Z,64.90
2023-05-13T16:50:44.750Z,64.90
2023-05-13T16:53:12.124Z,65.00
2023-05-13T16:55:39.510Z,64.80
2023-05-13T16:58:06.612Z,64.40
2023-05-13T17:00:33.630Z,64.60
2023-05-13T17:03:01.546Z,64.60
2023-05-13T17:05:30.153Z,64.70
2023-05-13T17:07:57.491Z,65.00
2023-05-13T17:10:24.661Z,65.40
2023-05-13T17:12:53.391Z,65.60
2023-05-13T17:15:20.469Z,65.10
2023-05-13T17:17:47.729Z,64.90
2023-05-13T17:20:14.828Z,64.40
2023-05-13T17:22:47.440Z,65.00
2023-05-13T17:25:15.215Z,65.50
2023-05-13T17:27:42.291Z,66.70
2023-05-13T17:30:10.012Z,67.50
2023-05-13T17:32:37.190Z,68.80
2023-05-13T17:35:05.138Z,69.40
2023-05-13T17:37:32.257Z,70.10
2023-05-13T17:40:01.634Z,70.80
2023-05-13T17:42:30.475Z,71.60
2023-05-13T17:44:57.667Z,73.00
2023-05-13T17:47:24.790Z,73.80
2023-05-13T17:49:51.885Z,73.70
2023-05-13T17:52:18.917Z,73.90
2023-05-13T17:54:46.221Z,74.40
2023-05-13T17:57:14.511Z,74.40
2023-05-13T17:59:41.647Z,74.10
2023-05-13T18:02:09.105Z,73.80
2023-05-13T18:04:36.252Z,72.40
2023-05-13T18:07:03.492Z,72.10
2023-05-13T18:09:30.644Z,72.20
2023-05-13T18:11:57.754Z,72.50
2023-05-13T18:14:24.927Z,72.90
2023-05-13T18:16:52.122Z,73.50
2023-05-13T18:19:19.212Z,73.90
2023-05-13T18:21:46.870Z,74.40
2023-05-13T18:24:13.960Z,74.70
2023-05-13T18:26:41.368Z,74.40
2023-05-13T18:29:08.392Z,74.20
2023-05-13T18:31:35.550Z,74.30
2023-05-13T18:34:06.946Z,74.70
2023-05-13T18:36:34.582Z,75.00
2023-05-13T18:39:05.511Z,75.50
2023-05-13T18:41:33.083Z,75.80
2023-05-13T18:44:00.326Z,76.10
2023-05-13T18:46:27.955Z,76.10
2023-05-13T18:48:55.426Z,76.60
2023-05-13T18:51:23.273Z,76.40
2023-05-13T18:53:50.547Z,76.50
2023-05-13T18:56:17.675Z,76.90
2023-05-13T18:58:46.942Z,77.00
2023-05-13T19:01:15.998Z,77.40
2023-05-13T19:03:43.901Z,78.20
2023-05-13T19:06:11.233Z,78.80
2023-05-13T19:08:38.732Z,79.30
2023-05-13T19:11:05.801Z,79.40
2023-05-13T19:13:39.770Z,79.80
2023-05-13T19:16:14.178Z,80.30
2023-05-13T19:18:41.456Z,80.70
2023-05-13T19:21:08.783Z,81.00
2023-05-13T19:23:37.186Z,81.20
2023-05-13T19:26:04.579Z,82.20
2023-05-13T19:28:32.477Z,81.80
2023-05-13T19:31:00.062Z,81.50
2023-05-13T19:33:27.537Z,81.50
2023-05-13T19:35:54.685Z,81.40
2023-05-13T19:38:41.750Z,81.50
2023-05-13T19:41:08.868Z,81.20
2023-05-13T19:43:36.003Z,81.20
2023-05-13T19:46:03.407Z,81.20
2023-05-13T19:48:30.851Z,81.60
2023-05-13T19:50:58.669Z,81.60
2023-05-13T19:53:26.384Z,81.70
2023-05-13T19:55:53.525Z,81.90
2023-05-13T19:58:20.915Z,82.10
2023-05-13T20:00:48.647Z,82.20
2023-05-13T20:03:15.982Z,82.00
2023-05-13T20:05:43.534Z,82.00
2023-05-13T20:08:11.165Z,81.90
2023-05-13T20:10:40.672Z,81.70
2023-05-13T20:13:08.095Z,81.30
2023-05-13T20:15:36.039Z,81.30
2023-05-13T20:18:03.209Z,81.40
2023-05-13T20:20:30.509Z,81.30
2023-05-13T20:22:58.184Z,81.50
2023-05-13T20:25:25.849Z,81.70
2023-05-13T20:27:52.942Z,81.60
2023-05-13T20:30:21.274Z,81.30
2023-05-13T20:32:48.778Z,80.90
2023-05-13T20:35:15.946Z,80.80
2023-05-13T20:37:43.171Z,80.60
2023-05-13T20:40:10.619Z,80.70
2023-05-13T20:42:37.695Z,81.30
2023-05-13T20:45:06.040Z,81.40
2023-05-13T20:47:33.203Z,81.00
2023-05-13T20:50:03.993Z,80.90
2023-05-13T20:52:34.135Z,81.20
2023-05-13T20:55:01.329Z,81.20
2023-05-13T20:57:28.600Z,81.10
2023-05-13T20:59:58.389Z,81.30
2023-05-13T21:02:26.224Z,81.70
2023-05-13T21:04:54.200Z,81.80
2023-05-13T21:07:21.306Z,81.70
2023-05-13T21:09:48.595Z,82.00
2023-05-13T21:12:15.867Z,82.00
2023-05-13T21:14:43.370Z,81.90
2023-05-13T21:17:10.858Z,82.00
2023-05-13T21:19:38.113Z,82.10
2023-05-13T21:22:06.086Z,81.80
2023-05-13T21:24:33.400Z,81.90
2023-05-13T21:27:00.582Z,82.00
2023-05-13T21:29:30.369Z,82.30
2023-05-13T21:31:59.270Z,82.70
2023-05-13T21:34:26.671Z,82.70
2023-05-13T21:36:54.075Z,82.90
2023-05-13T21:39:21.373Z,83.30
2023-05-13T21:42:00.289Z,83.20
2023-05-13T21:44:28.041Z,83.10
2023-05-13T21:46:55.381Z,83.30
2023-05-13T21:49:22.889Z,83.40
2023-05-13T21:51:50.212Z,83.40
2023-05-13T21:54:18.908Z,83.40
2023-05-13T21:56:46.931Z,83.40
2023-05-13T21:59:14.097Z,83.50
2023-05-13T22:01:41.326Z,83.50
2023-05-13T22:04:09.080Z,83.30
2023-05-13T22:06:36.447Z,83.10
2023-05-13T22:09:03.881Z,82.90
2023-05-13T22:11:30.942Z,82.90
2023-05-13T22:14:01.643Z,83.20
2023-05-13T22:16:29.106Z,83.40
2023-05-13T22:18:58.888Z,83.30
2023-05-13T22:21:26.551Z,83.30
2023-05-13T22:23:53.750Z,83.80
2023-05-13T22:26:22.045Z,84.10
2023-05-13T22:28:49.213Z,83.90
2023-05-13T22:31:17.024Z,83.70
2023-05-13T22:33:44.574Z,83.70
2023-05-13T22:36:14.771Z,83.80
2023-05-13T22:38:42.787Z,83.90
2023-05-13T22:41:09.936Z,83.80
2023-05-13T22:43:40.191Z,83.90
2023-05-13T22:46:07.410Z,84.50
2023-05-13T22:48:34.619Z,83.70
2023-05-13T22:51:01.885Z,83.70
2023-05-13T22:53:29.345Z,83.90
2023-05-13T22:55:56.554Z,83.90
2023-05-13T22:58:23.783Z,83.70
2023-05-13T23:00:51.026Z,83.90
2023-05-13T23:03:18.241Z,84.00
2023-05-13T23:05:48.296Z,84.10
2023-05-13T23:08:15.599Z,84.20
2023-05-13T23:10:42.704Z,84.00
2023-05-13T23:13:09.905Z,83.90
2023-05-13T23:15:37.296Z,84.00
2023-05-13T23:18:04.498Z,84.00
2023-05-13T23:20:31.862Z,84.20
2023-05-13T23:22:59.202Z,84.40
2023-05-13T23:25:26.542Z,84.70
2023-05-13T23:27:53.686Z,84.60
2023-05-13T23:30:21.592Z,84.60
2023-05-13T23:32:49.020Z,84.60
2023-05-13T23:35:16.099Z,84.70
2023-05-13T23:37:43.186Z,84.70
2023-05-13T23:40:10.612Z,85.00
2023-05-13T23:42:38.251Z,84.80
2023-05-13T23:45:05.755Z,85.00
2023-05-13T23:47:33.056Z,84.50
2023-05-13T23:50:00.447Z,84.60
2023-05-13T23:52:27.433Z,84.80
2023-05-13T23:54:54.563Z,84.80
2023-05-13T23:57:22.344Z,85.10
2023-05-13T23:59:49.418Z,84.80
